ウシュアイア の空港の天気 - METARとTAF

ウシュアイア空港 ( SAWH / USH ) - アルゼンチン ティエラ・デル・フエゴ州、ウシュアイア
飛行場実況気象(Metar)
観測時間06/17 16:00 ART (06/17 19:00 UTC)
風向・風速北 4m/s
視程10km以上
天気現象
全天の8割程度の雲 雲底高度 1460m
全天の8割程度の雲 雲底高度 3050m
気温7℃
湿度76%
気圧1007hPa
METARSAWH 171900Z 36007KT 9999 BKN048 BKN100 07/03 Q1007
過去の天気等 Google飛行場航空写真 Wunderground天気予報

過去48時間のMETAR

飛行場予報(TAF)
発表時間: 6/17 08:00 ART (6/17 11:00 UTC)
予報対象時間: 17日9時 ART ~ 18日9時 ART
風向・風速北北東 5m/s
視程10km以上
全天の4割程度の雲 雲底高度 1070m
全天を覆う雲 雲底高度 1830m
17日12時 ART ~ 17日14時 ART に徐々に
風向・風速北北西 5m/s
17日15時 ART ~ 17日19時 ART に 確率 40% で一時的に
視程3000m
天気現象弱い雨
全天の4割程度の雲 雲底高度 610m
全天を覆う雲 雲底高度 1070m
18日6時 ART ~ 18日7時 ART に徐々に
風向・風速北西 8m/s
視程8000m
天気現象
全天の8割程度の雲 雲底高度 760m
全天の8割程度の雲 雲底高度 1220m
TAF SAWH 171100Z 1712/1812 02010KT 9999 SCT035 OVC060 TX09/1718Z TN02/1803Z
BECMG 1715/1717 34010KT
PROB40 TEMPO 1718/1722 3000 -RA SCT020 OVC035
BECMG 1809/1810 32015KT 8000 RA BKN025 BKN040